createdAt,value
2018-03-21T00:01:48.895Z,68.03
2018-03-21T00:04:18.323Z,68.61
2018-03-21T00:06:47.256Z,68.88
2018-03-21T00:09:16.103Z,69.02
2018-03-21T00:11:45.094Z,69.16
2018-03-21T00:14:14.324Z,69.04
2018-03-21T00:16:44.380Z,68.92
2018-03-21T00:19:13.246Z,69.08
2018-03-21T00:21:42.146Z,69.16
2018-03-21T00:24:11.046Z,69.13
2018-03-21T00:26:40.269Z,69.31
2018-03-21T00:29:09.222Z,69.49
2018-03-21T00:31:38.130Z,69.26
2018-03-21T00:34:07.314Z,69.38
2018-03-21T00:36:36.877Z,69.66
2018-03-21T00:39:05.862Z,69.64
2018-03-21T00:41:35.047Z,69.88
2018-03-21T00:44:05.321Z,69.79
2018-03-21T00:46:34.212Z,69.96
2018-03-21T00:49:03.182Z,69.98
2018-03-21T00:51:32.111Z,70.06
2018-03-21T00:54:02.663Z,69.87
2018-03-21T00:56:31.572Z,69.98
2018-03-21T00:59:00.756Z,70.13
2018-03-21T01:01:30.120Z,69.78
2018-03-21T01:03:59.384Z,70.07
2018-03-21T01:06:28.391Z,69.87
2018-03-21T01:08:57.678Z,69.98
2018-03-21T01:11:26.658Z,69.71
2018-03-21T01:13:55.546Z,69.85
2018-03-21T01:16:25.071Z,69.94
2018-03-21T01:18:53.972Z,69.74
2018-03-21T01:21:22.856Z,69.62
2018-03-21T01:23:52.382Z,69.42
2018-03-21T01:26:21.553Z,69.54
2018-03-21T01:28:50.449Z,69.40
2018-03-21T01:31:19.382Z,69.36
2018-03-21T01:33:48.257Z,69.21
2018-03-21T01:36:17.509Z,68.92
2018-03-21T01:38:46.474Z,69.26
2018-03-21T01:41:15.633Z,69.12
2018-03-21T01:43:44.841Z,69.19
2018-03-21T01:46:13.752Z,68.83
2018-03-21T01:48:42.655Z,68.94
2018-03-21T01:51:11.830Z,68.61
2018-03-21T01:53:40.725Z,68.95
2018-03-21T01:56:09.597Z,68.86
2018-03-21T01:58:38.808Z,68.99
2018-03-21T02:01:08.154Z,69.03
2018-03-21T02:03:37.059Z,69.01
2018-03-21T02:06:06.321Z,68.89
2018-03-21T02:08:35.216Z,68.86
2018-03-21T02:11:05.189Z,68.66
2018-03-21T02:13:34.111Z,68.69
2018-03-21T02:16:03.619Z,68.86
2018-03-21T02:18:32.803Z,68.69
2018-03-21T02:21:01.841Z,68.68
2018-03-21T02:23:30.726Z,68.90
2018-03-21T02:26:01.078Z,68.52
2018-03-21T02:28:30.026Z,68.45
2018-03-21T02:30:59.043Z,68.50
2018-03-21T02:33:28.441Z,68.74
2018-03-21T02:35:57.459Z,68.56
2018-03-21T02:38:26.356Z,68.66
2018-03-21T02:40:55.516Z,68.70
2018-03-21T02:43:24.462Z,68.41
2018-03-21T02:45:53.390Z,68.56
2018-03-21T02:48:22.725Z,68.79
2018-03-21T02:50:51.694Z,68.63
2018-03-21T02:53:20.626Z,70.06
2018-03-21T02:55:49.492Z,70.74
2018-03-21T02:58:18.392Z,70.96
2018-03-21T03:00:47.522Z,71.00
2018-03-21T03:03:16.490Z,71.20
2018-03-21T03:05:45.338Z,71.63
2018-03-21T03:08:14.536Z,72.11
2018-03-21T03:10:43.553Z,72.11
2018-03-21T03:13:12.421Z,72.07
2018-03-21T03:15:41.579Z,72.33
2018-03-21T03:18:10.459Z,72.61
2018-03-21T03:20:39.322Z,72.57
2018-03-21T03:23:08.873Z,72.83
2018-03-21T03:25:37.722Z,72.75
2018-03-21T03:28:06.577Z,72.94
2018-03-21T03:30:35.771Z,72.91
2018-03-21T03:33:05.623Z,72.94
2018-03-21T03:35:34.580Z,72.84
2018-03-21T03:38:04.960Z,73.23
2018-03-21T03:40:33.846Z,73.13
2018-03-21T03:43:03.273Z,73.06
2018-03-21T03:45:32.158Z,72.98
2018-03-21T03:48:01.082Z,73.30
2018-03-21T03:50:30.279Z,73.61
2018-03-21T03:52:59.364Z,73.58
2018-03-21T03:55:28.309Z,73.63
2018-03-21T03:57:57.636Z,73.69
2018-03-21T04:00:26.559Z,73.91
2018-03-21T04:02:55.476Z,73.44
2018-03-21T04:05:24.912Z,73.63
2018-03-21T04:07:53.813Z,73.26
2018-03-21T04:10:22.712Z,73.29
2018-03-21T04:12:51.901Z,73.23
2018-03-21T04:15:20.804Z,73.43
2018-03-21T04:17:49.741Z,73.31
2018-03-21T04:20:18.662Z,73.43
2018-03-21T04:22:47.641Z,73.14
2018-03-21T04:25:16.865Z,73.12
2018-03-21T04:27:45.761Z,73.29
2018-03-21T04:30:14.696Z,72.78
2018-03-21T04:32:43.907Z,72.74
2018-03-21T04:35:12.920Z,72.83
2018-03-21T04:37:41.851Z,72.96
2018-03-21T04:40:11.047Z,73.04
2018-03-21T04:42:39.959Z,72.94
2018-03-21T04:45:09.482Z,72.93
2018-03-21T04:47:38.778Z,72.58
2018-03-21T04:50:07.817Z,72.10
2018-03-21T04:52:36.766Z,71.97
2018-03-21T04:55:06.014Z,71.74
2018-03-21T04:57:34.946Z,71.75
2018-03-21T05:00:05.952Z,71.46
2018-03-21T05:02:34.843Z,71.04
2018-03-21T05:05:04.329Z,70.92
2018-03-21T05:07:33.577Z,71.07
2018-03-21T05:10:03.604Z,70.97
2018-03-21T05:12:32.578Z,71.04
2018-03-21T05:15:01.967Z,70.96
2018-03-21T05:17:30.830Z,71.28
2018-03-21T05:19:59.961Z,70.68
2018-03-21T05:22:29.129Z,70.70
2018-03-21T05:24:58.238Z,70.58
2018-03-21T05:27:27.160Z,70.50
2018-03-21T05:29:56.444Z,70.56
2018-03-21T05:32:25.380Z,70.00
2018-03-21T05:34:54.670Z,69.62
2018-03-21T05:37:23.946Z,70.61
2018-03-21T05:39:53.584Z,69.72
2018-03-21T05:42:22.590Z,69.04
2018-03-21T05:44:51.490Z,67.74
2018-03-21T05:47:20.403Z,68.20
2018-03-21T05:49:49.576Z,68.25
2018-03-21T05:52:19.495Z,67.95
2018-03-21T05:54:48.416Z,67.88
2018-03-21T05:57:17.611Z,67.21
2018-03-21T05:59:46.524Z,66.63
2018-03-21T06:02:15.494Z,65.75
2018-03-21T06:04:44.660Z,65.97
2018-03-21T06:07:13.569Z,65.75
2018-03-21T06:09:42.673Z,65.71
2018-03-21T06:12:12.969Z,65.69
2018-03-21T06:14:41.932Z,65.17
2018-03-21T06:17:10.894Z,64.93
2018-03-21T06:19:44.008Z,64.82
2018-03-21T06:22:13.839Z,64.48
2018-03-21T06:24:42.757Z,64.61
2018-03-21T06:27:12.312Z,64.16
2018-03-21T06:29:41.652Z,63.80
2018-03-21T06:32:10.936Z,63.63
2018-03-21T06:34:40.218Z,62.96
2018-03-21T06:37:09.180Z,62.83
2018-03-21T06:39:38.404Z,62.60
2018-03-21T06:42:07.675Z,62.69
2018-03-21T06:44:36.696Z,61.78
2018-03-21T06:47:06.110Z,61.47
2018-03-21T06:49:35.134Z,61.15
2018-03-21T06:52:05.223Z,60.60
2018-03-21T06:54:34.446Z,60.25
2018-03-21T06:57:03.544Z,60.29
2018-03-21T06:59:32.522Z,60.09
2018-03-21T07:02:05.151Z,60.50
2018-03-21T07:04:34.035Z,60.20
2018-03-21T07:07:04.344Z,60.01
2018-03-21T07:09:33.294Z,59.56
2018-03-21T07:12:03.155Z,59.27
2018-03-21T07:17:18.804Z,58.86
2018-03-21T07:19:48.077Z,58.77
2018-03-21T07:22:17.236Z,58.99
2018-03-21T07:24:46.234Z,58.83
2018-03-21T07:27:15.451Z,59.18
2018-03-21T07:29:44.995Z,59.17
2018-03-21T07:32:13.947Z,59.04
2018-03-21T07:34:43.271Z,58.75
2018-03-21T07:39:42.206Z,58.59
2018-03-21T07:42:11.741Z,58.29
2018-03-21T07:44:40.594Z,58.72
2018-03-21T07:47:09.507Z,58.56
2018-03-21T07:49:38.659Z,58.51
2018-03-21T07:52:07.592Z,58.43
2018-03-21T07:54:36.464Z,57.80
2018-03-21T07:57:05.649Z,57.51
2018-03-21T07:59:34.531Z,57.21
2018-03-21T08:02:04.605Z,56.83
2018-03-21T08:04:33.839Z,56.51
2018-03-21T08:07:02.894Z,56.04
2018-03-21T08:09:31.815Z,55.06
2018-03-21T08:12:03.913Z,55.18
2018-03-21T08:14:32.772Z,54.12
2018-03-21T08:17:02.067Z,53.19
2018-03-21T08:19:31.200Z,52.60
2018-03-21T08:22:00.476Z,51.47
2018-03-21T08:24:29.399Z,50.60
2018-03-21T08:26:58.599Z,49.21
2018-03-21T08:29:27.556Z,48.68
2018-03-21T08:31:56.430Z,47.86
2018-03-21T08:34:25.678Z,47.33
2018-03-21T08:36:54.540Z,45.64
2018-03-21T08:39:23.410Z,45.43
2018-03-21T08:41:52.567Z,44.94
2018-03-21T08:44:26.160Z,45.46
2018-03-21T08:46:55.006Z,44.71
2018-03-21T08:49:25.293Z,44.84
2018-03-21T08:51:54.092Z,44.11
2018-03-21T08:54:24.649Z,42.49
2018-03-21T08:56:53.836Z,41.74
2018-03-21T08:59:23.137Z,42.05
2018-03-21T09:01:51.983Z,40.10
2018-03-21T09:04:21.174Z,39.88
2018-03-21T09:06:50.038Z,39.16
2018-03-21T09:09:18.913Z,39.09
2018-03-21T09:11:48.427Z,39.76
2018-03-21T09:14:17.322Z,39.89
2018-03-21T09:16:46.194Z,40.28
2018-03-21T09:19:15.348Z,39.14
2018-03-21T09:21:44.363Z,38.48
2018-03-21T09:24:13.312Z,39.01
2018-03-21T09:26:43.497Z,38.61
2018-03-21T09:29:12.380Z,38.53
2018-03-21T09:31:41.299Z,37.41
2018-03-21T09:34:10.529Z,38.37
2018-03-21T09:36:39.428Z,38.57
2018-03-21T09:39:09.382Z,37.93
2018-03-21T09:41:38.730Z,37.94
2018-03-21T09:44:07.823Z,36.39
2018-03-21T09:46:37.577Z,36.71
2018-03-21T09:49:06.929Z,35.78
2018-03-21T09:51:35.816Z,34.44
2018-03-21T09:54:06.008Z,33.65
2018-03-21T09:56:35.340Z,33.77
2018-03-21T09:59:05.323Z,35.07
2018-03-21T10:01:34.186Z,33.85
2018-03-21T10:04:04.439Z,34.07
2018-03-21T10:06:33.348Z,32.75
2018-03-21T10:09:02.405Z,32.60
2018-03-21T10:11:31.309Z,30.74
2018-03-21T10:14:00.670Z,31.37
2018-03-21T10:16:29.857Z,29.66
2018-03-21T10:18:58.816Z,30.03
2018-03-21T10:21:28.634Z,29.46
2018-03-21T10:23:57.793Z,29.88
2018-03-21T10:26:26.664Z,29.08
2018-03-21T10:28:56.071Z,30.20
2018-03-21T10:31:24.956Z,29.29
2018-03-21T10:33:53.888Z,28.18
2018-03-21T10:36:23.179Z,28.13
2018-03-21T10:38:52.203Z,28.60
2018-03-21T10:41:21.111Z,28.83
2018-03-21T10:43:50.386Z,28.24
2018-03-21T10:46:19.456Z,27.15
2018-03-21T10:48:48.403Z,26.79
2018-03-21T10:51:17.561Z,26.33
2018-03-21T10:53:46.453Z,26.16
2018-03-21T10:56:15.390Z,25.53
2018-03-21T10:58:44.575Z,26.05
2018-03-21T11:01:17.732Z,24.65
2018-03-21T11:03:50.764Z,24.58
2018-03-21T11:06:20.279Z,25.29
2018-03-21T11:08:49.253Z,25.37
2018-03-21T11:11:18.157Z,25.64
2018-03-21T11:13:47.385Z,25.08
2018-03-21T11:16:16.571Z,24.73
2018-03-21T11:18:45.555Z,24.57
2018-03-21T11:21:14.729Z,23.10
2018-03-21T11:23:43.619Z,22.71
2018-03-21T11:26:12.545Z,23.61
2018-03-21T11:28:41.752Z,24.06
2018-03-21T11:31:10.699Z,24.19
2018-03-21T11:33:39.659Z,24.37
2018-03-21T11:36:10.033Z,24.07
2018-03-21T11:38:38.972Z,23.49
2018-03-21T11:41:07.906Z,23.26
2018-03-21T11:43:37.488Z,23.33
2018-03-21T11:48:31.794Z,20.88
2018-03-21T11:51:02.087Z,19.99
2018-03-21T11:53:30.973Z,20.74
2018-03-21T11:56:00.149Z,21.88
2018-03-21T11:58:29.674Z,21.84
2018-03-21T12:00:58.640Z,21.69
2018-03-21T12:03:27.573Z,22.22
2018-03-21T12:05:58.020Z,21.64
2018-03-21T12:08:26.990Z,21.96
2018-03-21T12:10:55.920Z,21.74
2018-03-21T12:13:26.313Z,22.05
2018-03-21T12:15:55.199Z,23.04
2018-03-21T12:18:24.102Z,23.15
2018-03-21T12:20:53.596Z,22.59
2018-03-21T12:23:22.598Z,21.43
2018-03-21T12:25:51.780Z,21.07
2018-03-21T12:28:21.015Z,21.77
2018-03-21T12:30:49.918Z,21.74
2018-03-21T12:33:18.811Z,21.73
2018-03-21T12:35:48.773Z,19.64
2018-03-21T12:38:17.668Z,16.60
2018-03-21T12:40:46.641Z,15.35
2018-03-21T12:43:16.424Z,15.10
2018-03-21T12:45:45.411Z,15.63
2018-03-21T12:48:14.645Z,18.71
2018-03-21T12:50:43.883Z,19.45
2018-03-21T12:53:13.000Z,18.69
2018-03-21T12:55:42.059Z,19.04
2018-03-21T12:58:11.548Z,18.77
2018-03-21T13:00:40.451Z,20.16
2018-03-21T13:03:09.370Z,21.44
2018-03-21T13:05:38.790Z,20.75
2018-03-21T13:08:07.745Z,19.92
2018-03-21T13:10:36.646Z,20.79
2018-03-21T13:13:08.027Z,20.60
2018-03-21T13:15:36.988Z,19.84
2018-03-21T13:18:06.928Z,20.23
2018-03-21T13:20:36.087Z,20.44
2018-03-21T13:23:05.280Z,20.21
2018-03-21T13:25:34.237Z,20.40
2018-03-21T13:28:04.187Z,20.52
2018-03-21T13:30:33.111Z,19.93
2018-03-21T13:33:06.081Z,20.02
2018-03-21T13:35:35.425Z,19.58
2018-03-21T13:38:06.641Z,19.66
2018-03-21T13:40:35.504Z,19.27
2018-03-21T13:43:04.910Z,19.53
2018-03-21T13:45:34.326Z,18.74
2018-03-21T13:48:07.324Z,19.19
2018-03-21T13:50:36.551Z,19.27
2018-03-21T13:53:05.751Z,18.51
2018-03-21T13:55:34.704Z,17.98
2018-03-21T13:58:05.202Z,18.65
2018-03-21T14:00:34.337Z,17.57
2018-03-21T14:03:04.175Z,17.10
2018-03-21T14:05:33.341Z,16.11
2018-03-21T14:08:04.017Z,16.12
2018-03-21T14:10:32.929Z,16.92
2018-03-21T14:13:02.901Z,16.89
2018-03-21T14:15:31.907Z,16.28
2018-03-21T14:18:00.966Z,15.13
2018-03-21T14:20:30.166Z,15.12
2018-03-21T14:22:59.216Z,15.36
2018-03-21T14:25:28.090Z,14.62
2018-03-21T14:27:57.301Z,14.11
2018-03-21T14:30:26.363Z,14.41
2018-03-21T14:32:55.237Z,13.97
2018-03-21T14:35:24.470Z,14.04
2018-03-21T14:37:53.324Z,13.82
2018-03-21T14:40:22.183Z,13.74
2018-03-21T14:42:51.314Z,14.30
2018-03-21T14:45:20.181Z,14.05
2018-03-21T14:47:49.098Z,13.78
2018-03-21T14:50:18.496Z,13.57
2018-03-21T14:52:47.471Z,14.32
2018-03-21T14:55:17.146Z,13.70
2018-03-21T14:57:46.385Z,14.01
2018-03-21T15:00:15.473Z,13.98
2018-03-21T15:02:44.379Z,14.25
2018-03-21T15:05:13.248Z,14.40
2018-03-21T15:07:42.152Z,14.65
2018-03-21T15:10:13.573Z,14.15
2018-03-21T15:12:42.910Z,14.91
2018-03-21T15:15:11.783Z,14.52
2018-03-21T15:17:40.966Z,15.21
2018-03-21T15:20:10.127Z,15.14
2018-03-21T15:22:39.935Z,15.19
2018-03-21T15:25:08.969Z,15.55
2018-03-21T15:27:38.203Z,15.51
2018-03-21T15:30:07.776Z,16.09
2018-03-21T15:32:36.662Z,16.12
2018-03-21T15:35:05.799Z,17.03
2018-03-21T15:37:35.013Z,17.12
2018-03-21T15:40:05.263Z,17.43
2018-03-21T15:42:34.160Z,17.06
2018-03-21T15:45:03.429Z,17.40
2018-03-21T15:47:32.416Z,17.00
2018-03-21T15:50:02.483Z,17.25
2018-03-21T15:52:31.675Z,17.58
2018-03-21T15:55:00.777Z,17.51
2018-03-21T15:57:29.936Z,17.13
2018-03-21T15:59:59.448Z,16.99
2018-03-21T16:02:28.381Z,17.36
2018-03-21T16:04:57.263Z,17.94
2018-03-21T16:07:26.473Z,18.67
2018-03-21T16:09:55.417Z,18.91
2018-03-21T16:12:24.451Z,18.69
2018-03-21T16:14:54.461Z,18.81
2018-03-21T16:17:23.364Z,19.21
2018-03-21T16:19:52.289Z,19.23
2018-03-21T16:22:21.767Z,19.66
2018-03-21T16:24:50.707Z,20.02
2018-03-21T16:27:19.665Z,20.45
2018-03-21T16:29:48.953Z,20.70
2018-03-21T16:32:18.142Z,21.17
2018-03-21T16:34:47.288Z,21.28
2018-03-21T16:37:16.769Z,21.66
2018-03-21T16:39:45.709Z,21.48
2018-03-21T16:42:14.984Z,21.46
2018-03-21T16:44:44.286Z,21.39
2018-03-21T16:47:14.196Z,21.92
2018-03-21T16:49:43.512Z,22.62
2018-03-21T16:52:12.799Z,23.22
2018-03-21T16:54:41.877Z,23.22
2018-03-21T16:57:10.775Z,23.26
2018-03-21T16:59:44.405Z,23.84
2018-03-21T17:02:13.549Z,23.66
2018-03-21T17:04:42.612Z,23.79
2018-03-21T17:07:11.943Z,24.26
2018-03-21T17:09:40.895Z,24.78
2018-03-21T17:12:09.943Z,24.35
2018-03-21T17:14:40.088Z,24.83
2018-03-21T17:17:09.089Z,24.53
2018-03-21T17:19:38.013Z,25.21
2018-03-21T17:22:07.571Z,25.51
2018-03-21T17:24:36.511Z,25.45
2018-03-21T17:27:05.704Z,25.75
2018-03-21T17:29:34.933Z,25.67
2018-03-21T17:32:06.210Z,25.91
2018-03-21T17:34:35.286Z,25.87
2018-03-21T17:37:07.055Z,25.73
2018-03-21T17:39:35.989Z,26.28
2018-03-21T17:42:06.179Z,26.48
2018-03-21T17:44:35.418Z,25.78
2018-03-21T17:47:05.428Z,25.77
2018-03-21T17:49:34.484Z,26.12
2018-03-21T17:52:05.217Z,26.64
2018-03-21T17:54:34.182Z,26.62
2018-03-21T17:57:03.477Z,26.27
2018-03-21T17:59:35.180Z,26.19
2018-03-21T18:02:07.506Z,26.50
2018-03-21T18:04:36.839Z,26.72
2018-03-21T18:07:06.818Z,26.72
2018-03-21T18:09:35.790Z,27.24
2018-03-21T18:12:07.167Z,27.15
2018-03-21T18:14:36.134Z,27.17
2018-03-21T18:17:06.273Z,27.19
2018-03-21T18:19:35.540Z,26.81
2018-03-21T18:22:06.927Z,26.81
2018-03-21T18:24:36.299Z,26.84
2018-03-21T18:27:06.536Z,26.95
2018-03-21T18:29:35.734Z,27.86
2018-03-21T18:32:06.130Z,28.64
2018-03-21T18:34:35.149Z,29.00
2018-03-21T18:37:05.201Z,29.39
2018-03-21T18:39:34.452Z,29.71
2018-03-21T18:42:06.972Z,29.85
2018-03-21T18:44:35.985Z,30.10
2018-03-21T18:47:06.403Z,30.21
2018-03-21T18:49:35.276Z,30.52
2018-03-21T18:52:06.814Z,30.00
2018-03-21T18:54:36.192Z,30.16
2018-03-21T18:57:06.789Z,30.34
2018-03-21T18:59:36.625Z,30.67
2018-03-21T19:02:06.416Z,31.26
2018-03-21T19:04:35.367Z,31.38
2018-03-21T19:07:04.955Z,31.80
2018-03-21T19:09:35.204Z,31.71
2018-03-21T19:12:05.982Z,31.76
2018-03-21T19:14:34.951Z,31.88
2018-03-21T19:17:05.294Z,32.11
2018-03-21T19:19:34.271Z,32.32
2018-03-21T19:22:06.358Z,32.56
2018-03-21T19:24:35.623Z,32.65
2018-03-21T19:27:06.005Z,32.90
2018-03-21T19:29:34.972Z,33.26
2018-03-21T19:32:05.339Z,33.46
2018-03-21T19:34:34.925Z,33.53
2018-03-21T19:37:04.789Z,33.73
2018-03-21T19:39:34.132Z,33.44
2018-03-21T19:42:04.134Z,33.39
2018-03-21T19:44:33.122Z,33.74
2018-03-21T19:47:03.275Z,33.70
2018-03-21T19:49:32.345Z,34.01
2018-03-21T19:52:03.775Z,34.45
2018-03-21T19:54:33.920Z,34.61
2018-03-21T19:57:04.915Z,34.50
2018-03-21T19:59:34.585Z,34.81
2018-03-21T20:02:04.599Z,35.39
2018-03-21T20:04:33.564Z,36.03
2018-03-21T20:07:03.514Z,36.35
2018-03-21T20:09:32.786Z,36.93
2018-03-21T20:12:02.906Z,37.13
2018-03-21T20:14:32.346Z,37.42
2018-03-21T20:17:03.518Z,37.21
2018-03-21T20:19:32.430Z,36.98
2018-03-21T20:22:04.395Z,36.71
2018-03-21T20:24:33.971Z,36.48
2018-03-21T20:27:03.512Z,36.84
2018-03-21T20:29:32.448Z,37.23
2018-03-21T20:32:02.880Z,37.18
2018-03-21T20:34:31.898Z,37.18
2018-03-21T20:37:01.233Z,37.51
2018-03-21T20:39:30.514Z,37.61
2018-03-21T20:42:00.548Z,37.64
2018-03-21T20:44:29.843Z,37.83
2018-03-21T20:46:58.811Z,38.10
2018-03-21T20:49:27.727Z,37.82
2018-03-21T20:51:56.952Z,38.67
2018-03-21T20:54:26.554Z,39.04
2018-03-21T20:56:55.483Z,39.49
2018-03-21T20:59:25.336Z,39.54
2018-03-21T21:01:55.143Z,39.37
2018-03-21T21:04:24.033Z,39.58
2018-03-21T21:06:52.958Z,39.62
2018-03-21T21:09:22.160Z,39.66
2018-03-21T21:11:51.086Z,39.72
2018-03-21T21:14:20.120Z,39.55
2018-03-21T21:16:49.757Z,39.38
2018-03-21T21:19:18.721Z,39.83
2018-03-21T21:21:47.682Z,40.07
2018-03-21T21:24:16.883Z,39.64
2018-03-21T21:26:46.137Z,40.02
2018-03-21T21:29:15.038Z,39.99
2018-03-21T21:31:44.472Z,40.49
2018-03-21T21:34:13.385Z,40.32
2018-03-21T21:36:42.369Z,40.37
2018-03-21T21:39:11.801Z,40.11
2018-03-21T21:41:40.886Z,40.35
2018-03-21T21:44:10.060Z,40.72
2018-03-21T21:46:39.203Z,40.56
2018-03-21T21:49:08.161Z,40.92
2018-03-21T21:51:36.998Z,42.32
2018-03-21T21:54:06.907Z,43.17
2018-03-21T21:56:35.902Z,43.07
2018-03-21T21:59:06.056Z,43.08
2018-03-21T22:01:36.421Z,43.44
2018-03-21T22:04:08.956Z,43.45
2018-03-21T22:06:38.619Z,44.15
2018-03-21T22:09:08.995Z,44.61
2018-03-21T22:11:38.024Z,44.80
2018-03-21T22:14:07.022Z,45.06
2018-03-21T22:16:36.252Z,45.04
2018-03-21T22:19:05.782Z,44.89
2018-03-21T22:21:34.778Z,45.02
2018-03-21T22:24:06.036Z,45.12
2018-03-21T22:26:34.953Z,45.06
2018-03-21T22:29:05.532Z,44.93
2018-03-21T22:31:36.947Z,44.65
2018-03-21T22:34:06.589Z,45.02
2018-03-21T22:36:35.550Z,45.51
2018-03-21T22:39:05.603Z,45.34
2018-03-21T22:41:34.580Z,44.98
2018-03-21T22:44:05.806Z,45.12
2018-03-21T22:46:35.159Z,45.08
2018-03-21T22:49:06.216Z,45.52
2018-03-21T22:51:35.129Z,46.06
2018-03-21T22:54:05.138Z,46.62
2018-03-21T22:56:34.066Z,46.94
2018-03-21T22:59:05.580Z,46.47
2018-03-21T23:01:34.912Z,46.95
2018-03-21T23:04:05.021Z,46.79
2018-03-21T23:06:33.894Z,46.88
2018-03-21T23:09:04.136Z,46.65
2018-03-21T23:11:33.462Z,46.63
2018-03-21T23:14:03.212Z,46.78
2018-03-21T23:16:32.078Z,47.32
2018-03-21T23:19:02.133Z,47.26
2018-03-21T23:21:31.044Z,47.11
2018-03-21T23:24:00.465Z,47.81
2018-03-21T23:26:29.343Z,48.42
2018-03-21T23:28:58.379Z,48.89
2018-03-21T23:31:27.589Z,48.97
2018-03-21T23:33:56.525Z,49.01
2018-03-21T23:36:25.372Z,48.92
2018-03-21T23:38:54.593Z,49.01
2018-03-21T23:41:23.713Z,49.35
2018-03-21T23:43:52.614Z,49.14
2018-03-21T23:46:21.968Z,49.76
2018-03-21T23:48:50.840Z,50.54
2018-03-21T23:51:19.781Z,51.18
2018-03-21T23:53:48.936Z,52.49
2018-03-21T23:56:17.817Z,53.24
2018-03-21T23:58:47.007Z,53.39
